createdAt,value
2023-11-08T00:03:59.230Z,5.97
2023-11-08T00:09:00.548Z,6.57
2023-11-08T00:14:01.896Z,6.15
2023-11-08T00:19:03.539Z,6.05
2023-11-08T00:24:04.945Z,6.30
2023-11-08T00:29:06.191Z,6.25
2023-11-08T00:34:07.464Z,6.35
2023-11-08T00:39:08.843Z,6.00
2023-11-08T00:44:10.179Z,6.30
2023-11-08T00:49:11.476Z,6.97
2023-11-08T00:54:12.778Z,6.25
2023-11-08T00:59:14.073Z,6.85
2023-11-08T01:04:15.427Z,6.10
2023-11-08T01:09:16.893Z,6.50
2023-11-08T01:14:18.174Z,6.45
2023-11-08T01:19:19.749Z,6.30
2023-11-08T01:24:21.050Z,6.32
2023-11-08T01:29:22.274Z,5.72
2023-11-08T01:34:23.575Z,5.63
2023-11-08T01:39:26.015Z,4.85
2023-11-08T01:44:27.296Z,5.45
2023-11-08T01:49:28.700Z,4.60
2023-11-08T01:54:30.083Z,4.90
2023-11-08T01:59:34.253Z,4.95
2023-11-08T02:10:13.841Z,5.47
2023-11-08T02:15:15.226Z,4.78
2023-11-08T02:20:16.873Z,4.90
2023-11-08T02:25:18.076Z,5.60
2023-11-08T02:30:19.919Z,6.75
2023-11-08T02:35:21.291Z,8.25
2023-11-08T02:40:22.678Z,9.07
2023-11-08T02:45:24.045Z,8.88
2023-11-08T02:50:25.574Z,10.50
2023-11-08T02:55:29.905Z,10.73
2023-11-08T03:00:31.228Z,10.35
2023-11-08T03:05:33.178Z,10.48
2023-11-08T03:10:34.584Z,10.98
2023-11-08T03:15:35.856Z,10.48
2023-11-08T03:20:37.106Z,9.63
2023-11-08T03:25:38.331Z,10.88
2023-11-08T03:30:39.965Z,9.98
2023-11-08T03:35:41.241Z,10.80
2023-11-08T03:40:42.872Z,10.32
2023-11-08T03:45:44.202Z,9.25
2023-11-08T03:50:45.501Z,9.60
2023-11-08T03:55:46.726Z,9.43
2023-11-08T04:00:48.606Z,9.70
2023-11-08T04:05:49.848Z,9.02
2023-11-08T04:10:51.362Z,9.90
2023-11-08T04:15:52.698Z,10.52
2023-11-08T04:20:54.121Z,10.70
2023-11-08T04:25:55.428Z,8.88
2023-11-08T04:30:56.728Z,8.82
2023-11-08T04:35:58.432Z,7.43
2023-11-08T04:40:59.688Z,7.35
2023-11-08T04:46:00.971Z,7.15
2023-11-08T04:51:02.235Z,6.47
2023-11-08T04:56:03.788Z,7.38
2023-11-08T05:01:05.063Z,7.43
2023-11-08T05:06:06.388Z,7.70
2023-11-08T05:11:07.913Z,8.23
2023-11-08T05:16:09.220Z,8.13
2023-11-08T05:21:12.118Z,8.77
2023-11-08T05:26:13.348Z,8.35
2023-11-08T05:31:14.578Z,9.40
2023-11-08T05:36:19.110Z,9.35
2023-11-08T05:41:20.357Z,9.63
2023-11-08T05:46:21.618Z,11.00
2023-11-08T05:51:23.696Z,11.05
2023-11-08T05:56:25.007Z,10.45
2023-11-08T06:01:27.171Z,10.32
2023-11-08T06:06:28.452Z,9.55
2023-11-08T06:11:30.274Z,9.50
2023-11-08T06:16:31.496Z,9.27
2023-11-08T06:21:32.717Z,10.27
2023-11-08T06:26:34.147Z,9.75
2023-11-08T06:31:36.065Z,9.60
2023-11-08T06:36:37.313Z,9.60
2023-11-08T06:41:38.604Z,9.85
2023-11-08T06:46:41.820Z,10.00
2023-11-08T06:51:43.308Z,9.93
2023-11-08T06:56:44.636Z,10.00
2023-11-08T07:01:45.895Z,10.52
2023-11-08T07:06:47.259Z,9.43
2023-11-08T07:11:49.123Z,10.63
2023-11-08T07:16:50.426Z,11.60
2023-11-08T07:21:51.669Z,10.40
2023-11-08T07:26:54.051Z,11.73
2023-11-08T07:31:55.373Z,12.55
2023-11-08T07:36:56.920Z,11.23
2023-11-08T07:41:58.195Z,12.55
2023-11-08T07:47:00.023Z,13.00
2023-11-08T07:52:01.376Z,12.55
2023-11-08T07:57:02.807Z,13.57
2023-11-08T08:02:04.036Z,12.70
2023-11-08T08:07:05.303Z,12.57
2023-11-08T08:12:06.770Z,12.85
2023-11-08T08:17:07.990Z,12.65
2023-11-08T08:22:09.477Z,12.45
2023-11-08T08:27:10.718Z,13.15
2023-11-08T08:32:12.133Z,13.40
2023-11-08T08:37:13.580Z,12.68
2023-11-08T08:42:14.849Z,11.82
2023-11-08T08:47:16.096Z,11.25
2023-11-08T08:52:17.314Z,10.65
2023-11-08T08:57:18.916Z,11.95
2023-11-08T09:02:20.664Z,11.23
2023-11-08T09:07:21.959Z,11.13
2023-11-08T09:12:23.570Z,9.90
2023-11-08T09:17:25.191Z,11.40
2023-11-08T09:22:26.413Z,10.80
2023-11-08T09:27:27.692Z,11.05
2023-11-08T09:32:28.984Z,10.52
2023-11-08T09:37:30.284Z,9.25
2023-11-08T09:42:31.842Z,10.07
2023-11-08T09:47:34.574Z,10.95
2023-11-08T09:52:37.107Z,9.05
2023-11-08T09:57:38.364Z,9.27
2023-11-08T10:02:40.125Z,8.73
2023-11-08T10:07:41.426Z,9.90
2023-11-08T10:12:43.293Z,10.40
2023-11-08T10:19:31.253Z,9.27
2023-11-08T10:23:05.852Z,8.95
2023-11-08T10:28:07.598Z,8.55
2023-11-08T10:33:09.463Z,7.93
2023-11-08T10:38:11.250Z,7.53
2023-11-08T10:43:19.685Z,8.25
2023-11-08T10:48:21.066Z,7.65
2023-11-08T10:53:22.460Z,6.97
2023-11-08T10:58:26.270Z,6.82
2023-11-08T11:03:28.377Z,5.97
2023-11-08T11:08:32.269Z,6.13
2023-11-08T11:13:44.242Z,5.82
2023-11-08T11:18:50.570Z,5.70
2023-11-08T11:23:51.907Z,5.22
2023-11-08T11:28:54.264Z,4.20
2023-11-08T11:33:55.878Z,4.10
2023-11-08T11:39:13.176Z,4.10
2023-11-08T11:44:14.423Z,3.80
2023-11-08T11:49:17.255Z,3.13
2023-11-08T11:54:18.564Z,3.00
2023-11-08T11:59:21.019Z,2.70
2023-11-08T12:04:23.046Z,2.50
2023-11-08T12:09:24.375Z,2.55
2023-11-08T12:14:25.876Z,2.20
2023-11-08T12:19:27.749Z,1.70
2023-11-08T12:24:35.734Z,1.80
2023-11-08T12:29:37.082Z,1.92
2023-11-08T12:34:38.568Z,1.67
2023-11-08T12:39:39.950Z,2.22
2023-11-08T12:44:47.506Z,1.95
2023-11-08T12:49:48.786Z,1.73
2023-11-08T12:54:56.729Z,1.60
2023-11-08T12:59:58.018Z,1.63
2023-11-08T13:04:59.452Z,1.67
2023-11-08T13:10:00.791Z,1.70
2023-11-08T13:15:02.121Z,1.58
2023-11-08T13:20:03.616Z,1.52
2023-11-08T13:25:05.043Z,1.55
2023-11-08T13:30:06.741Z,1.40
2023-11-08T13:35:07.956Z,1.80
2023-11-08T13:40:09.413Z,1.50
2023-11-08T13:45:10.688Z,1.58
2023-11-08T13:50:12.022Z,1.58
2023-11-08T13:55:13.333Z,1.50
2023-11-08T14:00:14.942Z,2.00
2023-11-08T14:05:16.882Z,1.60
2023-11-08T14:10:18.436Z,1.48
2023-11-08T14:15:19.794Z,1.40
2023-11-08T14:20:21.136Z,1.73
2023-11-08T14:25:25.521Z,1.77
2023-11-08T14:30:28.340Z,1.58
2023-11-08T14:35:29.718Z,1.40
2023-11-08T14:40:31.011Z,1.30
2023-11-08T14:45:33.209Z,1.33
2023-11-08T14:50:34.555Z,1.48
2023-11-08T14:55:35.861Z,1.05
2023-11-08T15:00:37.175Z,1.40
2023-11-08T15:05:38.428Z,1.60
2023-11-08T15:10:39.700Z,1.40
2023-11-08T15:15:41.003Z,1.20
2023-11-08T15:20:42.436Z,1.50
2023-11-08T15:25:43.725Z,1.40
2023-11-08T15:30:45.018Z,1.30
2023-11-08T15:35:46.252Z,1.23
2023-11-08T15:40:47.479Z,1.40
2023-11-08T15:45:48.907Z,1.50
2023-11-08T15:50:50.201Z,1.33
2023-11-08T15:55:51.438Z,1.50
2023-11-08T16:00:52.667Z,1.30
2023-11-08T16:05:53.915Z,1.52
2023-11-08T16:10:55.123Z,1.33
2023-11-08T16:15:56.406Z,1.17
2023-11-08T16:20:57.662Z,1.38
2023-11-08T16:25:59.026Z,1.48
2023-11-08T16:32:29.633Z,1.52
2023-11-08T16:36:23.689Z,1.40
2023-11-08T16:41:25.412Z,1.30
2023-11-08T16:46:26.973Z,1.38
2023-11-08T16:51:28.658Z,1.25
2023-11-08T16:56:29.933Z,1.80
2023-11-08T17:01:31.217Z,1.30
2023-11-08T17:06:32.504Z,1.70
2023-11-08T17:11:33.777Z,1.55
2023-11-08T17:16:35.105Z,2.10
2023-11-08T17:21:36.420Z,1.60
2023-11-08T17:26:37.636Z,1.10
2023-11-08T17:31:39.333Z,1.45
2023-11-08T17:36:40.916Z,1.50
2023-11-08T17:41:42.268Z,1.27
2023-11-08T17:46:43.600Z,1.50
2023-11-08T17:51:44.839Z,1.65
2023-11-08T17:56:46.414Z,1.40
2023-11-08T18:01:47.633Z,1.23
2023-11-08T18:06:48.961Z,0.98
2023-11-08T18:11:50.240Z,1.45
2023-11-08T18:16:51.624Z,1.30
2023-11-08T18:21:52.943Z,0.90
2023-11-08T18:26:54.214Z,1.00
2023-11-08T18:31:55.469Z,1.42
2023-11-08T18:36:56.752Z,1.33
2023-11-08T18:41:58.600Z,0.95
2023-11-08T18:46:59.918Z,1.33
2023-11-08T18:52:01.227Z,1.42
2023-11-08T18:57:02.952Z,1.35
2023-11-08T19:02:04.255Z,1.45
2023-11-08T19:07:05.473Z,1.30
2023-11-08T19:12:06.975Z,1.65
2023-11-08T19:17:08.311Z,1.50
2023-11-08T19:22:10.101Z,1.38
2023-11-08T19:27:11.373Z,1.13
2023-11-08T19:32:12.961Z,1.30
2023-11-08T19:37:14.335Z,1.23
2023-11-08T19:42:18.530Z,1.02
2023-11-08T19:47:19.978Z,1.23
2023-11-08T19:52:28.441Z,1.40
2023-11-08T19:57:31.211Z,1.30
2023-11-08T20:02:32.826Z,1.60
2023-11-08T20:07:34.189Z,2.10
2023-11-08T20:12:35.608Z,1.52
2023-11-08T20:17:37.089Z,1.35
2023-11-08T20:22:38.456Z,1.63
2023-11-08T20:27:39.786Z,1.65
2023-11-08T20:32:41.290Z,1.83
2023-11-08T20:37:42.546Z,1.63
2023-11-08T20:42:43.923Z,2.17
2023-11-08T20:47:45.313Z,2.35
2023-11-08T20:52:46.776Z,1.98
2023-11-08T20:57:48.197Z,1.73
2023-11-08T21:02:49.497Z,2.08
2023-11-08T21:07:50.727Z,2.90
2023-11-08T21:12:52.213Z,2.22
2023-11-08T21:17:53.981Z,2.05
2023-11-08T21:22:55.224Z,2.30
2023-11-08T21:27:56.488Z,2.85
2023-11-08T21:32:57.797Z,2.45
2023-11-08T21:37:59.025Z,3.17
2023-11-08T21:43:00.691Z,2.60
2023-11-08T21:48:02.503Z,2.80
2023-11-08T21:53:07.130Z,2.30
2023-11-08T21:58:08.403Z,2.47
2023-11-08T22:03:09.891Z,2.47
2023-11-08T22:08:11.180Z,2.60
2023-11-08T22:13:12.866Z,2.65
2023-11-08T22:18:14.872Z,3.30
2023-11-08T22:23:19.035Z,3.03
2023-11-08T22:28:20.393Z,3.17
2023-11-08T22:33:21.669Z,2.78
2023-11-08T22:38:22.899Z,2.80
2023-11-08T22:43:24.202Z,3.22
2023-11-08T22:48:42.455Z,2.58
2023-11-08T22:53:43.749Z,3.10
2023-11-08T22:58:45.202Z,2.75
2023-11-08T23:03:46.484Z,2.85
2023-11-08T23:08:47.734Z,2.67
2023-11-08T23:13:48.950Z,2.75
2023-11-08T23:18:50.702Z,2.72
2023-11-08T23:23:52.409Z,2.65
2023-11-08T23:28:54.107Z,2.80
2023-11-08T23:33:55.374Z,2.85
2023-11-08T23:38:56.775Z,2.63
2023-11-08T23:43:58.030Z,2.63
2023-11-08T23:48:59.792Z,2.78
2023-11-08T23:54:01.330Z,2.58
2023-11-08T23:59:05.594Z,2.42
